Time;durP1;ratioP1;P1;durP2;ratioP2;P2;SDS_P1;SDS_P2;PMS_P1;PMS_P2;Temp;Humidity;BMP_temperature;BMP_pressure;BME280_temperature;BME280_humidity;BME280_pressure;Samples;Min_cycle;Max_cycle;Signal;HPM_P1;HPM_P2
2022/08/22 00:01:07;;;;;;;5.73;2.73;;;15.80;99.90;;;;;;4993595;28;20763;-69
2022/08/22 00:04:02;;;;;;;5.70;3.30;;;15.80;99.90;;;;;;4992880;28;20431;-70
2022/08/22 00:06:47;;;;;;;5.57;3.10;;;15.80;99.90;;;;;;4992647;28;20411;-71
2022/08/22 00:09:34;;;;;;;2.50;2.30;;;15.80;99.90;;;;;;4991755;28;20839;-69
2022/08/22 00:12:08;;;;;;;5.47;3.20;;;15.70;99.90;;;;;;4991896;28;20957;-72
2022/08/22 00:15:08;;;;;;;4.87;3.27;;;15.80;99.90;;;;;;4992432;28;20792;-71
2022/08/22 00:17:57;;;;;;;3.97;2.80;;;15.80;99.90;;;;;;4992352;28;20764;-71
2022/08/22 00:21:04;;;;;;;4.13;2.87;;;15.80;99.90;;;;;;4991692;28;20425;-71
2022/08/22 00:23:48;;;;;;;4.70;3.33;;;15.80;99.90;;;;;;4960295;28;20513;-71
2022/08/22 00:26:50;;;;;;;3.27;2.87;;;15.80;99.90;;;;;;4993421;28;20493;-71
2022/08/22 00:29:22;;;;;;;8.57;4.17;;;15.80;99.90;;;;;;4975266;28;20418;-71
2022/08/22 00:31:53;;;;;;;2.73;2.50;;;15.90;99.90;;;;;;4975830;28;20462;-71
2022/08/22 00:34:21;;;;;;;3.10;2.70;;;15.90;99.90;;;;;;4991743;28;20418;-71
2022/08/22 00:37:06;;;;;;;4.60;2.93;;;15.90;99.90;;;;;;4992025;28;20472;-70
2022/08/22 00:39:59;;;;;;;7.43;3.10;;;15.80;99.90;;;;;;4991889;28;20423;-69
2022/08/22 00:42:43;;;;;;;3.33;3.03;;;15.70;99.90;;;;;;4990981;28;20442;-69
2022/08/22 00:45:28;;;;;;;4.43;3.20;;;15.70;99.90;;;;;;4991940;28;20415;-71
2022/08/22 00:48:14;;;;;;;3.70;3.40;;;15.70;99.90;;;;;;4993200;28;20406;-70
2022/08/22 00:50:58;;;;;;;4.13;2.77;;;15.70;99.90;;;;;;4991150;28;20426;-69
2022/08/22 00:53:49;;;;;;;4.73;2.60;;;15.60;99.90;;;;;;4991885;28;20433;-71
2022/08/22 00:56:56;;;;;;;4.23;3.10;;;15.60;99.90;;;;;;4977014;28;20463;-71
2022/08/22 00:59:58;;;;;;;3.50;3.20;;;15.50;99.90;;;;;;4983239;28;20446;-71
2022/08/22 02:31:52;;;;;;;3.70;3.40;;;14.20;99.90;;;;;;5717299;23;20503;-72
2022/08/22 02:34:57;;;;;;;7.43;4.00;;;14.20;99.90;;;;;;4946889;29;20811;-72
2022/08/22 02:37:50;;;;;;;5.07;3.57;;;14.10;99.90;;;;;;4925970;29;20476;-72
2022/08/22 02:40:29;;;;;;;3.33;3.13;;;14.10;99.90;;;;;;4934505;29;20427;-71
2022/08/22 02:43:17;;;;;;;11.93;3.73;;;14.10;99.90;;;;;;4934867;29;20443;-69
2022/08/22 02:46:02;;;;;;;4.07;3.63;;;14.00;99.90;;;;;;4935345;29;20957;-73
2022/08/22 02:48:56;;;;;;;4.03;3.37;;;14.10;99.90;;;;;;4935438;29;20421;-70
2022/08/22 02:51:35;;;;;;;4.43;3.40;;;14.00;99.90;;;;;;4934745;29;20496;-70
2022/08/22 02:54:38;;;;;;;3.63;3.10;;;14.00;99.90;;;;;;4935487;29;20428;-70
2022/08/22 02:57:09;;;;;;;5.03;3.00;;;13.90;99.90;;;;;;4933930;29;20457;-72
2022/08/22 02:59:36;;;;;;;8.47;4.33;;;13.90;99.90;;;;;;4934583;29;20496;-72
2022/08/22 03:02:22;;;;;;;4.90;4.23;;;13.80;99.90;;;;;;4933944;29;20461;-72
2022/08/22 03:04:53;;;;;;;13.03;4.80;;;13.90;99.90;;;;;;4933921;29;20770;-70
2022/08/22 03:07:30;;;;;;;4.87;4.03;;;13.80;99.90;;;;;;4934429;29;20435;-72
2022/08/22 03:10:15;;;;;;;5.80;3.63;;;13.80;99.90;;;;;;4935628;29;20910;-70
2022/08/22 03:12:53;;;;;;;4.53;3.60;;;13.80;99.90;;;;;;4934958;29;20437;-71
2022/08/22 03:15:46;;;;;;;6.30;3.80;;;13.80;99.90;;;;;;4935159;29;20408;-71
2022/08/22 03:18:11;;;;;;;4.93;3.60;;;13.70;99.90;;;;;;4935142;29;20847;-69
2022/08/22 03:20:45;;;;;;;4.40;4.00;;;13.70;99.90;;;;;;4934803;29;20489;-73
2022/08/22 03:23:37;;;;;;;5.47;3.70;;;13.60;99.90;;;;;;4935245;29;20158;-72
2022/08/22 03:26:23;;;;;;;10.90;3.90;;;13.60;99.90;;;;;;4935326;29;20393;-73
2022/08/22 03:29:01;;;;;;;6.30;3.60;;;13.50;99.90;;;;;;4935060;29;20440;-73
2022/08/22 03:31:29;;;;;;;6.40;4.33;;;13.50;99.90;;;;;;4934616;29;20444;-73
2022/08/22 03:34:19;;;;;;;5.90;4.17;;;13.40;99.90;;;;;;4935235;29;20428;-73
2022/08/22 03:37:18;;;;;;;5.07;3.33;;;13.40;99.90;;;;;;4934882;29;20460;-71
2022/08/22 03:40:19;;;;;;;5.30;3.90;;;13.40;99.90;;;;;;4932173;29;20504;-70
2022/08/22 03:43:03;;;;;;;6.37;4.80;;;13.40;99.90;;;;;;4934346;29;20519;-71
2022/08/22 03:45:56;;;;;;;6.27;4.93;;;13.30;99.90;;;;;;4934481;29;20484;-72
2022/08/22 03:48:33;;;;;;;8.67;4.67;;;13.40;99.90;;;;;;4936010;29;20417;-72
2022/08/22 03:51:26;;;;;;;7.70;4.80;;;13.30;99.90;;;;;;4934890;29;20428;-72
2022/08/22 03:54:29;;;;;;;6.33;4.43;;;13.30;99.90;;;;;;4934770;29;20413;-71
2022/08/22 03:57:32;;;;;;;4.73;4.23;;;13.30;99.90;;;;;;4934122;29;20501;-71
2022/08/22 04:00:10;;;;;;;16.27;4.37;;;13.20;99.90;;;;;;4934385;29;20769;-72
2022/08/22 04:03:15;;;;;;;5.27;4.50;;;13.20;99.90;;;;;;4934270;29;20922;-72
2022/08/22 04:06:13;;;;;;;6.27;4.47;;;13.20;99.90;;;;;;4934958;29;20422;-71
2022/08/22 04:09:09;;;;;;;9.93;5.30;;;13.20;99.90;;;;;;4915924;29;20416;-71
2022/08/22 04:11:48;;;;;;;7.70;5.00;;;13.10;99.90;;;;;;4938015;29;20800;-71
2022/08/22 04:14:42;;;;;;;9.57;5.27;;;13.10;99.90;;;;;;4938642;29;20401;-71
2022/08/22 04:17:17;;;;;;;4.87;4.17;;;13.10;99.90;;;;;;4938341;29;20441;-71
2022/08/22 04:20:02;;;;;;;6.97;4.47;;;13.10;99.90;;;;;;4938252;29;20417;-72
2022/08/22 04:22:48;;;;;;;5.00;4.20;;;13.10;99.90;;;;;;4937678;29;20580;-72
2022/08/22 04:25:46;;;;;;;6.93;4.83;;;13.10;99.90;;;;;;4938187;29;20407;-70
2022/08/22 04:28:28;;;;;;;8.33;4.80;;;13.00;99.90;;;;;;4938190;29;20917;-70
2022/08/22 04:31:04;;;;;;;9.57;4.47;;;13.00;99.90;;;;;;4937625;29;20449;-71
2022/08/22 04:33:45;;;;;;;9.23;5.00;;;13.00;99.90;;;;;;4938186;29;20506;-70
2022/08/22 04:36:21;;;;;;;13.57;4.27;;;13.00;99.90;;;;;;4937880;29;20553;-70
2022/08/22 04:39:08;;;;;;;7.90;5.00;;;13.00;99.90;;;;;;4937147;29;20417;-71
2022/08/22 04:41:45;;;;;;;6.60;4.73;;;13.00;99.90;;;;;;4935250;29;20433;-74
2022/08/22 04:44:26;;;;;;;5.60;4.73;;;13.00;99.90;;;;;;4935600;29;20417;-75
2022/08/22 04:47:01;;;;;;;5.40;4.77;;;13.10;99.90;;;;;;4935542;29;20440;-74
2022/08/22 04:49:48;;;;;;;6.50;4.70;;;13.10;99.90;;;;;;4934843;29;20413;-74
2022/08/22 04:52:33;;;;;;;7.67;4.83;;;13.10;99.90;;;;;;4934726;29;20481;-74
2022/08/22 04:55:31;;;;;;;9.20;5.20;;;13.10;99.90;;;;;;4944868;29;21071;-74
2022/08/22 04:58:23;;;;;;;5.60;4.30;;;13.10;99.90;;;;;;4950073;29;20472;-74
2022/08/22 05:01:17;;;;;;;5.33;4.40;;;13.20;99.90;;;;;;4953151;29;20780;-72
2022/08/22 05:03:54;;;;;;;4.57;4.17;;;13.30;99.90;;;;;;4920387;29;21000;-74
2022/08/22 05:06:25;;;;;;;15.47;4.60;;;13.30;99.90;;;;;;4952796;28;20428;-75
2022/08/22 05:08:51;;;;;;;34.10;22.40;;;13.50;99.90;;;;;;4950452;28;20523;-74
2022/08/22 05:11:20;;;;;;;23.17;15.60;;;13.60;99.90;;;;;;4951018;29;20521;-74
2022/08/22 05:13:53;;;;;;;9.63;6.80;;;13.60;99.90;;;;;;4950387;28;20420;-73
2022/08/22 05:16:25;;;;;;;9.50;5.00;;;13.70;99.90;;;;;;4951283;29;20871;-73
2022/08/22 05:18:56;;;;;;;7.10;4.80;;;13.80;99.90;;;;;;4950789;28;20428;-73
2022/08/22 05:21:30;;;;;;;8.67;5.80;;;14.00;99.90;;;;;;4951385;29;21027;-74
2022/08/22 05:24:29;;;;;;;7.00;4.70;;;14.10;99.90;;;;;;4953799;29;20404;-74
2022/08/22 05:26:59;;;;;;;7.60;5.20;;;14.30;99.90;;;;;;4940692;29;20491;-74
2022/08/22 05:29:28;;;;;;;5.97;4.30;;;14.60;99.90;;;;;;4953189;29;20427;-73
2022/08/22 05:32:02;;;;;;;10.00;4.83;;;15.00;99.90;;;;;;4952923;29;20459;-75
2022/08/22 05:34:38;;;;;;;5.23;4.37;;;15.60;99.90;;;;;;4954147;29;20641;-74
2022/08/22 05:37:10;;;;;;;4.90;4.30;;;16.20;99.90;;;;;;4953257;29;20555;-74
2022/08/22 05:39:38;;;;;;;5.80;4.27;;;16.80;99.90;;;;;;4953760;29;20439;-74
2022/08/22 05:42:10;;;;;;;7.67;4.80;;;17.30;99.90;;;;;;4952778;29;20448;-74
2022/08/22 05:44:37;;;;;;;5.90;4.63;;;17.80;99.90;;;;;;4954024;29;20448;-74
2022/08/22 05:47:31;;;;;;;8.10;4.70;;;18.20;99.90;;;;;;4953692;29;20428;-75
2022/08/22 05:50:11;;;;;;;5.30;4.40;;;18.50;99.90;;;;;;4952996;29;20424;-74
2022/08/22 05:52:43;;;;;;;7.30;4.17;;;18.90;99.90;;;;;;4952833;29;20472;-74
2022/08/22 05:55:19;;;;;;;11.33;4.83;;;19.30;99.90;;;;;;4953477;29;20475;-72
2022/08/22 05:57:50;;;;;;;8.03;4.70;;;19.70;99.90;;;;;;4954189;29;20456;-75
2022/08/22 06:00:19;;;;;;;5.17;4.57;;;20.00;99.90;;;;;;4954697;29;20456;-75
2022/08/22 06:02:54;;;;;;;7.77;4.87;;;20.30;99.90;;;;;;4953175;29;20814;-74
2022/08/22 06:05:27;;;;;;;5.87;4.67;;;20.50;99.90;;;;;;4952966;29;20419;-74
2022/08/22 06:08:04;;;;;;;6.47;4.80;;;20.70;99.90;;;;;;4952578;29;20419;-72
2022/08/22 06:10:40;;;;;;;7.93;4.63;;;21.00;99.90;;;;;;4952791;29;20412;-72
2022/08/22 06:13:31;;;;;;;9.40;5.10;;;21.30;99.90;;;;;;4953199;29;20467;-74
2022/08/22 06:16:04;;;;;;;7.83;4.30;;;21.50;99.90;;;;;;4952874;29;20412;-74
2022/08/22 06:18:31;;;;;;;11.20;4.73;;;21.70;99.90;;;;;;4952468;29;20416;-74
2022/08/22 06:21:00;;;;;;;6.53;3.70;;;21.70;99.90;;;;;;4952006;29;20783;-74
2022/08/22 06:23:37;;;;;;;5.60;4.97;;;22.00;99.90;;;;;;4952994;29;20444;-74
2022/08/22 06:26:04;;;;;;;9.30;4.67;;;22.10;99.90;;;;;;4952711;29;20423;-74
2022/08/22 06:28:43;;;;;;;7.83;5.20;;;22.30;99.90;;;;;;4952772;29;20428;-74
2022/08/22 06:31:21;;;;;;;7.83;5.97;;;22.50;99.90;;;;;;4951208;28;20460;-72
2022/08/22 06:34:12;;;;;;;9.60;5.00;;;22.60;99.90;;;;;;4952796;29;20511;-75
2022/08/22 06:36:41;;;;;;;6.20;5.40;;;22.70;99.90;;;;;;4944371;29;20543;-74
2022/08/22 06:39:15;;;;;;;6.70;4.80;;;22.80;99.90;;;;;;4951839;29;20459;-75
2022/08/22 06:42:07;;;;;;;10.57;5.43;;;22.80;99.90;;;;;;4951912;29;20447;-73
2022/08/22 06:44:42;;;;;;;9.43;5.00;;;23.20;99.90;;;;;;4952840;29;20806;-75
2022/08/22 06:47:22;;;;;;;7.93;5.10;;;23.40;99.90;;;;;;4952263;29;20435;-74
2022/08/22 06:49:52;;;;;;;5.57;4.73;;;23.20;99.90;;;;;;4952451;29;20412;-72
2022/08/22 06:52:21;;;;;;;6.17;4.63;;;23.50;99.90;;;;;;4951775;29;20515;-74
2022/08/22 06:54:51;;;;;;;7.90;5.07;;;23.70;99.90;;;;;;4952739;29;20504;-74
2022/08/22 06:57:34;;;;;;;9.10;5.07;;;23.80;99.90;;;;;;4952704;29;20455;-74
2022/08/22 07:00:11;;;;;;;5.90;5.13;;;24.00;99.90;;;;;;4952412;29;20440;-74
2022/08/22 07:02:36;;;;;;;5.10;4.57;;;24.30;99.90;;;;;;4951356;29;20846;-75
2022/08/22 07:05:04;;;;;;;5.17;4.40;;;24.60;99.90;;;;;;4952482;29;20417;-75
2022/08/22 07:07:30;;;;;;;7.60;4.80;;;24.80;99.90;;;;;;4952065;29;20172;-71
2022/08/22 07:09:56;;;;;;;6.87;5.10;;;25.00;99.90;;;;;;4952578;29;20855;-74
2022/08/22 07:12:35;;;;;;;5.20;4.70;;;25.20;99.90;;;;;;4952937;29;21020;-74
2022/08/22 07:15:21;;;;;;;7.90;4.70;;;25.20;99.90;;;;;;4953260;29;20447;-74
2022/08/22 07:17:56;;;;;;;7.30;4.70;;;25.50;99.90;;;;;;4952780;29;20460;-74
2022/08/22 07:20:23;;;;;;;7.53;4.87;;;25.70;99.90;;;;;;4953532;29;20822;-74
2022/08/22 07:23:03;;;;;;;7.50;5.70;;;25.70;99.90;;;;;;4953003;29;20439;-71
2022/08/22 07:25:30;;;;;;;10.33;5.27;;;25.60;99.90;;;;;;4952332;29;20944;-71
2022/08/22 07:28:35;;;;;;;5.80;4.70;;;25.70;99.90;;;;;;4952032;29;20508;-74
2022/08/22 07:31:15;;;;;;;6.13;4.27;;;25.70;99.90;;;;;;4950321;29;20518;-74
2022/08/22 07:33:47;;;;;;;7.93;5.10;;;25.90;99.90;;;;;;4952161;29;20420;-74
2022/08/22 07:36:25;;;;;;;4.87;4.47;;;26.00;99.90;;;;;;4952379;29;20563;-74
2022/08/22 07:39:05;;;;;;;4.83;4.33;;;26.20;99.90;;;;;;4950384;29;20424;-74
2022/08/22 07:41:46;;;;;;;6.93;4.60;;;26.10;99.90;;;;;;4949775;28;20444;-74
2022/08/22 07:44:22;;;;;;;7.60;4.50;;;26.40;99.90;;;;;;4954698;29;20832;-74
2022/08/22 07:47:07;;;;;;;4.60;3.53;;;26.30;99.90;;;;;;4955218;29;20847;-70
2022/08/22 07:49:50;;;;;;;6.27;4.03;;;26.60;99.90;;;;;;4955345;29;20789;-76
2022/08/22 07:52:18;;;;;;;7.83;4.07;;;26.60;99.90;;;;;;4955147;29;20947;-75
2022/08/22 07:55:03;;;;;;;6.03;3.63;;;26.60;99.90;;;;;;4955195;29;20435;-71
2022/08/22 07:57:34;;;;;;;3.33;3.03;;;26.90;99.90;;;;;;4954268;29;20995;-72
2022/08/22 08:00:03;;;;;;;5.33;3.43;;;27.30;99.90;;;;;;4955493;29;20427;-75
2022/08/22 08:02:29;;;;;;;7.20;3.87;;;27.40;99.90;;;;;;4954680;29;20451;-72
2022/08/22 08:04:59;;;;;;;5.00;3.63;;;27.40;99.90;;;;;;4955555;29;20460;-74
2022/08/22 08:07:27;;;;;;;4.23;2.87;;;27.30;99.90;;;;;;4955894;29;20499;-74
2022/08/22 08:10:00;;;;;;;4.30;3.00;;;27.30;99.90;;;;;;4955094;29;20435;-74
2022/08/22 08:12:38;;;;;;;7.33;4.77;;;27.30;99.90;;;;;;4954127;29;20527;-74
2022/08/22 08:15:08;;;;;;;5.13;3.27;;;27.60;99.90;;;;;;4955131;29;20420;-74
2022/08/22 08:17:37;;;;;;;11.17;3.47;;;27.70;99.90;;;;;;4955036;29;20452;-74
2022/08/22 08:20:09;;;;;;;3.80;3.50;;;27.70;99.90;;;;;;4954992;29;20448;-74
2022/08/22 08:22:37;;;;;;;3.73;2.97;;;27.50;99.90;;;;;;4954570;29;20431;-74
2022/08/22 08:25:04;;;;;;;5.57;3.40;;;27.60;99.90;;;;;;4954911;29;20806;-74
2022/08/22 08:30:26;;;;;;;4.63;3.20;;;28.30;99.90;;;;;;4955285;29;20511;-74
2022/08/22 08:32:56;;;;;;;6.23;4.40;;;28.30;99.90;;;;;;4954324;29;20454;-77
2022/08/22 08:35:26;;;;;;;4.17;3.77;;;28.80;99.90;;;;;;4953366;29;20878;-75
2022/08/22 08:38:08;;;;;;;4.23;3.80;;;29.00;99.90;;;;;;4954403;29;20456;-74
2022/08/22 08:40:53;;;;;;;5.20;3.87;;;29.00;99.90;;;;;;4954340;29;20413;-72
2022/08/22 08:43:33;;;;;;;6.07;3.60;;;28.90;99.90;;;;;;4953791;29;20427;-74
2022/08/22 08:46:08;;;;;;;3.67;3.37;;;28.70;99.90;;;;;;4953979;29;20952;-74
2022/08/22 08:48:52;;;;;;;4.20;3.17;;;28.70;99.90;;;;;;4954657;29;20407;-74
2022/08/22 08:51:39;;;;;;;6.00;3.17;;;28.90;99.90;;;;;;4953976;29;20635;-74
2022/08/22 08:54:25;;;;;;;4.90;3.50;;;29.20;99.90;;;;;;4953483;28;20427;-74
2022/08/22 08:57:02;;;;;;;5.10;3.73;;;28.90;99.90;;;;;;4953619;29;20448;-74
2022/08/22 08:59:48;;;;;;;4.70;3.77;;;28.90;99.90;;;;;;4954245;29;20527;-73
2022/08/22 09:02:38;;;;;;;3.70;3.43;;;28.70;99.90;;;;;;4953602;29;20468;-74
2022/08/22 09:05:28;;;;;;;3.70;3.43;;;28.90;99.90;;;;;;4954528;29;20421;-74
2022/08/22 09:08:24;;;;;;;4.47;4.07;;;29.40;99.90;;;;;;4953474;29;20423;-74
2022/08/22 09:11:11;;;;;;;6.27;3.87;;;29.70;99.90;;;;;;4951981;29;20420;-72
2022/08/22 09:14:10;;;;;;;4.10;3.70;;;29.90;99.90;;;;;;4954446;29;20416;-74
2022/08/22 09:16:51;;;;;;;5.40;3.83;;;30.50;99.90;;;;;;4946587;29;20474;-74
2022/08/22 09:19:39;;;;;;;4.20;3.90;;;30.90;99.90;;;;;;4954081;29;20424;-75
2022/08/22 09:22:26;;;;;;;4.07;3.63;;;31.10;99.90;;;;;;4952709;29;20439;-74
2022/08/22 09:25:00;;;;;;;3.83;3.63;;;31.10;99.40;;;;;;4953880;29;20409;-75
2022/08/22 09:27:55;;;;;;;5.20;4.70;;;31.10;99.70;;;;;;4954027;29;20510;-74
2022/08/22 09:30:24;;;;;;;3.93;3.60;;;31.00;99.50;;;;;;4953499;29;20507;-75
2022/08/22 09:33:04;;;;;;;3.90;3.27;;;31.20;99.50;;;;;;4952994;29;20452;-74
2022/08/22 09:36:09;;;;;;;4.20;4.00;;;31.20;99.30;;;;;;4953885;29;20452;-75
2022/08/22 09:38:37;;;;;;;4.67;4.17;;;31.30;99.20;;;;;;4953540;28;20758;-76
2022/08/22 09:41:36;;;;;;;5.97;4.30;;;31.10;99.10;;;;;;4952642;29;20802;-75
2022/08/22 09:44:21;;;;;;;4.20;3.90;;;30.80;99.70;;;;;;4953343;29;20450;-74
2022/08/22 09:46:55;;;;;;;4.30;3.90;;;31.10;99.30;;;;;;4953529;29;20415;-74
2022/08/22 09:49:43;;;;;;;5.47;3.80;;;31.00;98.90;;;;;;4952076;29;20416;-76
2022/08/22 09:52:25;;;;;;;4.93;4.13;;;31.30;99.00;;;;;;4952705;29;20432;-72
2022/08/22 09:55:01;;;;;;;4.53;4.13;;;31.40;98.10;;;;;;4953329;29;20408;-74
2022/08/22 09:57:49;;;;;;;7.03;3.83;;;31.70;98.10;;;;;;4953567;29;20522;-73
2022/08/22 10:00:30;;;;;;;5.27;4.00;;;31.80;97.80;;;;;;4953404;29;20448;-73
2022/08/22 10:03:18;;;;;;;7.53;4.70;;;31.80;97.50;;;;;;4952876;29;20440;-72
2022/08/22 10:05:53;;;;;;;5.13;4.63;;;32.00;96.90;;;;;;4952625;28;20907;-72
2022/08/22 10:08:36;;;;;;;5.73;3.83;;;32.20;95.90;;;;;;4953850;29;20420;-73
2022/08/22 10:11:28;;;;;;;6.80;3.57;;;32.30;95.00;;;;;;4952634;29;20432;-72
2022/08/22 10:13:58;;;;;;;4.80;3.23;;;31.90;94.00;;;;;;4952863;29;20876;-73
2022/08/22 10:16:48;;;;;;;3.10;2.90;;;32.40;93.60;;;;;;4952672;29;20452;-72
2022/08/22 10:19:23;;;;;;;6.83;4.10;;;32.70;93.60;;;;;;4953108;29;20417;-73
2022/08/22 10:22:18;;;;;;;3.73;3.30;;;33.10;93.60;;;;;;4952168;29;20436;-72
2022/08/22 10:24:58;;;;;;;4.60;3.30;;;32.90;92.60;;;;;;4953016;29;20847;-73
2022/08/22 10:27:52;;;;;;;6.33;3.50;;;33.00;91.30;;;;;;4952461;29;20424;-72
2022/08/22 10:30:25;;;;;;;5.97;3.20;;;33.00;90.20;;;;;;4952844;29;20424;-74
2022/08/22 10:32:56;;;;;;;4.10;3.70;;;33.80;89.30;;;;;;4952256;29;20456;-73
2022/08/22 10:35:37;;;;;;;7.00;3.00;;;34.70;88.70;;;;;;4952600;29;20459;-73
2022/08/22 10:38:13;;;;;;;6.97;3.40;;;35.10;86.40;;;;;;4952428;29;20556;-74
2022/08/22 10:40:50;;;;;;;5.67;3.30;;;35.10;85.50;;;;;;4952148;29;20412;-73
2022/08/22 10:43:16;;;;;;;4.10;3.47;;;34.90;85.10;;;;;;4953028;29;20440;-73
2022/08/22 10:45:45;;;;;;;5.33;3.53;;;35.00;85.70;;;;;;4952529;29;20502;-72
2022/08/22 10:48:11;;;;;;;3.93;3.53;;;35.30;84.80;;;;;;4952657;29;20185;-71
2022/08/22 10:50:50;;;;;;;3.60;3.13;;;35.30;83.80;;;;;;4950311;29;20424;-70
2022/08/22 10:53:34;;;;;;;3.97;3.67;;;35.20;81.10;;;;;;4952812;29;20202;-73
2022/08/22 10:56:22;;;;;;;3.83;3.40;;;34.80;82.60;;;;;;4952309;29;20419;-72
2022/08/22 10:59:06;;;;;;;4.43;4.13;;;35.20;84.20;;;;;;4952468;29;20503;-71
2022/08/22 11:01:38;;;;;;;3.80;3.60;;;35.00;80.50;;;;;;4951840;29;20428;-73
2022/08/22 11:04:31;;;;;;;3.90;3.60;;;34.30;80.50;;;;;;4952329;29;20435;-73
2022/08/22 11:07:33;;;;;;;5.03;4.37;;;33.60;79.90;;;;;;4952264;29;20921;-74
2022/08/22 11:10:15;;;;;;;4.00;3.40;;;33.10;83.10;;;;;;4950027;28;20786;-73
2022/08/22 11:12:57;;;;;;;5.63;3.10;;;32.90;85.40;;;;;;4944682;29;20440;-76
2022/08/22 11:15:51;;;;;;;4.23;3.93;;;33.20;85.90;;;;;;4952584;28;20823;-75
2022/08/22 11:18:19;;;;;;;4.10;3.70;;;32.90;84.40;;;;;;4954311;28;20455;-75
2022/08/22 11:20:45;;;;;;;3.50;3.30;;;32.30;81.70;;;;;;4955676;29;20448;-75
2022/08/22 11:23:36;;;;;;;4.17;3.47;;;32.10;81.80;;;;;;4956179;29;20459;-72
2022/08/22 11:26:12;;;;;;;2.60;2.40;;;31.90;77.50;;;;;;4956120;28;20196;-72
2022/08/22 11:28:58;;;;;;;4.70;3.23;;;31.90;78.40;;;;;;4955892;28;20792;-72
2022/08/22 11:32:01;;;;;;;3.10;2.90;;;31.50;78.10;;;;;;4955104;29;20452;-72
2022/08/22 11:34:56;;;;;;;3.00;2.70;;;31.30;77.80;;;;;;4956434;29;20412;-73
2022/08/22 11:37:41;;;;;;;3.17;2.87;;;31.60;79.10;;;;;;4954701;29;20471;-72
2022/08/22 11:40:31;;;;;;;3.53;3.20;;;31.40;78.00;;;;;;4955501;28;20452;-74
2022/08/22 11:42:59;;;;;;;6.17;3.13;;;31.30;79.40;;;;;;4955408;29;20502;-72
2022/08/22 11:45:34;;;;;;;5.07;3.53;;;31.60;79.90;;;;;;4956129;29;20451;-73
2022/08/22 11:48:23;;;;;;;3.10;2.80;;;31.50;78.10;;;;;;4955719;28;20422;-73
2022/08/22 11:51:14;;;;;;;3.93;3.00;;;31.30;80.40;;;;;;4954520;28;20427;-70
2022/08/22 11:54:07;;;;;;;3.60;3.30;;;31.30;78.50;;;;;;4919393;28;20424;-72
2022/08/22 11:56:47;;;;;;;3.63;2.70;;;30.70;78.90;;;;;;4955008;29;20467;-72
2022/08/22 11:59:28;;;;;;;2.80;2.60;;;30.90;79.20;;;;;;4954957;28;20416;-72
2022/08/22 12:02:03;;;;;;;3.27;2.90;;;30.90;78.60;;;;;;4954888;28;20432;-73
2022/08/22 12:04:38;;;;;;;5.23;3.27;;;30.80;77.90;;;;;;4955500;28;20412;-70
2022/08/22 12:07:17;;;;;;;2.97;2.77;;;30.80;78.90;;;;;;4960614;28;20443;-71
2022/08/22 12:10:01;;;;;;;4.47;2.73;;;31.00;78.30;;;;;;4963641;28;20415;-72
2022/08/22 12:12:50;;;;;;;2.63;2.43;;;31.00;75.40;;;;;;4961429;28;20462;-72
2022/08/22 12:15:23;;;;;;;3.50;3.30;;;30.50;74.50;;;;;;4964716;28;20522;-71
2022/08/22 12:18:22;;;;;;;5.80;2.03;;;30.50;75.60;;;;;;4960310;28;20523;-70
2022/08/22 12:21:12;;;;;;;3.80;2.80;;;30.60;76.50;;;;;;4962454;28;20419;-71
2022/08/22 12:23:56;;;;;;;2.87;2.67;;;30.90;74.50;;;;;;4964793;28;20804;-70
2022/08/22 12:26:40;;;;;;;4.07;3.37;;;31.00;76.70;;;;;;4960494;28;20983;-71
2022/08/22 12:29:12;;;;;;;5.70;3.23;;;30.90;76.30;;;;;;4957328;28;20420;-73
2022/08/22 12:32:15;;;;;;;3.10;2.67;;;30.80;76.70;;;;;;4952634;28;20474;-73
2022/08/22 12:35:02;;;;;;;3.40;2.87;;;30.40;79.40;;;;;;4961715;28;20458;-74
2022/08/22 12:37:37;;;;;;;6.10;3.30;;;30.20;79.80;;;;;;4957113;28;21382;-73
2022/08/22 12:40:21;;;;;;;3.70;3.50;;;30.00;79.70;;;;;;4945878;29;20462;-74
2022/08/22 12:42:59;;;;;;;3.77;3.00;;;30.00;80.80;;;;;;4950582;29;20517;-74
2022/08/22 12:46:08;;;;;;;4.87;3.37;;;30.00;79.20;;;;;;4953961;28;20459;-74
2022/08/22 12:48:53;;;;;;;6.10;2.67;;;29.90;80.10;;;;;;4969838;28;20514;-73
2022/08/22 12:51:39;;;;;;;2.63;2.43;;;29.60;78.30;;;;;;4970022;28;20441;-73
2022/08/22 12:54:23;;;;;;;4.20;2.90;;;29.40;78.80;;;;;;4960521;28;20423;-73
2022/08/22 12:57:04;;;;;;;5.53;3.50;;;29.30;80.20;;;;;;4957828;28;20462;-71
2022/08/22 12:59:37;;;;;;;3.80;3.37;;;28.90;80.50;;;;;;4960793;28;20444;-72
2022/08/22 13:02:15;;;;;;;4.10;3.50;;;28.60;81.90;;;;;;4961117;28;20948;-73
2022/08/22 13:04:57;;;;;;;4.03;2.70;;;28.50;82.30;;;;;;4962333;28;20475;-74
2022/08/22 13:07:25;;;;;;;2.90;2.70;;;28.40;83.20;;;;;;4964030;28;20830;-73
2022/08/22 13:10:07;;;;;;;3.57;2.43;;;28.40;83.00;;;;;;4962177;28;20427;-73
2022/08/22 13:12:44;;;;;;;4.80;2.73;;;28.30;83.30;;;;;;4957694;28;20436;-74
2022/08/22 13:15:34;;;;;;;3.90;2.83;;;28.20;82.30;;;;;;4953413;28;20424;-71
2022/08/22 13:18:03;;;;;;;4.23;3.83;;;28.20;82.50;;;;;;4952267;29;20460;-73
2022/08/22 13:20:34;;;;;;;3.13;2.93;;;28.20;81.20;;;;;;4953508;28;20510;-71
2022/08/22 13:23:09;;;;;;;5.17;2.90;;;28.20;82.10;;;;;;4953442;28;20940;-73
2022/08/22 13:25:59;;;;;;;5.10;3.07;;;28.10;81.40;;;;;;4953401;28;20416;-75
2022/08/22 13:28:28;;;;;;;4.13;3.20;;;28.10;82.40;;;;;;4953865;28;20413;-73
2022/08/22 13:30:56;;;;;;;3.57;2.73;;;28.00;83.30;;;;;;4952408;28;20420;-73
2022/08/22 13:33:26;;;;;;;3.90;2.63;;;28.00;83.30;;;;;;4953870;28;20416;-74
2022/08/22 13:36:14;;;;;;;6.03;2.70;;;28.00;83.10;;;;;;4953061;28;20419;-75
2022/08/22 13:39:02;;;;;;;5.50;3.53;;;28.00;82.80;;;;;;4951688;29;20435;-73
2022/08/22 13:41:33;;;;;;;4.13;2.73;;;27.80;84.40;;;;;;4952370;28;20433;-72
2022/08/22 13:44:08;;;;;;;3.13;2.20;;;27.80;82.10;;;;;;4955197;28;20424;-74
2022/08/22 13:46:36;;;;;;;2.97;2.53;;;27.80;81.50;;;;;;4953806;28;20447;-74
2022/08/22 13:49:06;;;;;;;4.60;2.70;;;27.70;80.80;;;;;;4964581;28;20401;-73
2022/08/22 13:51:46;;;;;;;3.67;2.70;;;27.70;82.10;;;;;;4951354;28;20524;-73
2022/08/22 13:54:15;;;;;;;2.50;2.30;;;27.80;81.90;;;;;;4952450;28;20412;-73
2022/08/22 13:56:52;;;;;;;2.70;2.50;;;28.10;84.30;;;;;;4952653;29;20448;-72
2022/08/22 13:59:34;;;;;;;3.57;3.27;;;28.20;81.60;;;;;;4953290;29;20421;-73
2022/08/22 14:02:15;;;;;;;3.73;3.03;;;28.20;84.70;;;;;;4951975;28;21216;-73
2022/08/22 14:04:43;;;;;;;2.47;2.23;;;28.20;82.70;;;;;;4952274;29;20412;-73
2022/08/22 14:07:09;;;;;;;3.13;2.83;;;28.20;82.60;;;;;;4953099;28;20551;-70
2022/08/22 14:09:59;;;;;;;3.60;3.20;;;28.10;82.60;;;;;;4953259;29;20511;-73
2022/08/22 14:12:32;;;;;;;5.03;3.07;;;28.10;82.70;;;;;;4952104;28;20204;-73
2022/08/22 14:15:01;;;;;;;3.80;3.50;;;28.00;84.00;;;;;;4953349;29;20787;-73
2022/08/22 14:17:34;;;;;;;3.90;3.50;;;28.00;85.70;;;;;;4951919;29;21027;-73
2022/08/22 14:20:07;;;;;;;2.63;2.50;;;27.80;86.60;;;;;;4951195;29;20455;-73
2022/08/22 14:22:35;;;;;;;4.17;3.00;;;27.80;87.70;;;;;;4952140;29;20523;-73
2022/08/22 14:25:27;;;;;;;9.40;8.53;;;27.60;87.00;;;;;;4952985;28;20413;-73
2022/08/22 14:27:59;;;;;;;5.17;2.93;;;27.60;87.80;;;;;;4949866;29;20425;-73
2022/08/22 14:30:32;;;;;;;4.07;3.63;;;27.60;87.50;;;;;;4952560;28;20420;-72
2022/08/22 14:33:17;;;;;;;3.27;3.07;;;27.70;87.40;;;;;;4951908;28;20452;-73
2022/08/22 14:35:49;;;;;;;3.80;3.47;;;27.80;86.60;;;;;;4952928;28;21141;-73
2022/08/22 14:38:24;;;;;;;6.37;3.30;;;27.80;86.40;;;;;;4951337;29;20488;-73
2022/08/22 14:40:59;;;;;;;5.23;3.40;;;27.70;86.70;;;;;;4951868;28;20831;-70
2022/08/22 14:43:27;;;;;;;3.47;3.20;;;27.60;86.70;;;;;;4952143;28;20444;-73
2022/08/22 14:45:57;;;;;;;4.83;3.40;;;27.60;86.10;;;;;;4952897;29;20431;-73
2022/08/22 14:48:31;;;;;;;3.30;3.10;;;27.60;86.50;;;;;;4952598;28;20840;-73
2022/08/22 14:51:08;;;;;;;3.43;2.60;;;27.50;85.70;;;;;;4951830;28;20475;-73
2022/08/22 14:53:37;;;;;;;3.27;3.00;;;27.50;86.10;;;;;;4952547;28;20415;-73
2022/08/22 14:56:22;;;;;;;2.67;2.47;;;27.30;86.50;;;;;;4951999;28;20459;-73
2022/08/22 14:58:50;;;;;;;4.03;3.30;;;27.40;88.20;;;;;;4952156;28;20421;-74
2022/08/22 15:01:19;;;;;;;2.80;2.70;;;27.50;86.10;;;;;;4951867;28;20434;-72
2022/08/22 15:03:54;;;;;;;4.90;3.10;;;27.50;85.50;;;;;;4951773;28;20416;-74
2022/08/22 15:06:43;;;;;;;10.53;2.97;;;27.50;85.70;;;;;;4952247;28;20419;-73
2022/08/22 15:09:36;;;;;;;2.70;2.50;;;27.60;86.10;;;;;;4952015;28;20424;-70
2022/08/22 15:12:05;;;;;;;3.63;3.30;;;27.60;85.20;;;;;;4951391;28;20969;-73
2022/08/22 15:14:34;;;;;;;3.30;3.10;;;27.60;85.60;;;;;;4952069;28;20918;-72
2022/08/22 15:17:04;;;;;;;5.37;3.00;;;27.70;85.70;;;;;;4952275;29;20448;-72
2022/08/22 15:19:33;;;;;;;3.17;2.97;;;27.70;86.00;;;;;;4952094;28;20425;-71
2022/08/22 15:22:15;;;;;;;3.43;2.67;;;27.70;85.30;;;;;;4951623;28;20860;-71
2022/08/22 15:25:08;;;;;;;3.43;2.60;;;27.60;85.80;;;;;;4952653;28;20494;-73